Time,TemperatureF,DewpointF,PressureIn,WindDirection,WindDirectionDegrees,WindSpeedMPH,WindSpeedGustMPH,Humidity,HourlyPrecipIn,Conditions,Clouds,dailyrainin,SolarRadiationWatts/m^2,SoftwareType,DateUTC
2013-02-12 00:00:00,17.7,10.8,30.08,WSW,250,2.0,3.0,74,0.00,,BKN210,0.00,0.00,VWS V14.01,2013-02-12 07:00:00,
2013-02-12 00:05:00,18.3,10.8,30.07,West,273,2.0,3.0,72,0.00,,BKN210,0.00,0.00,VWS V14.01,2013-02-12 07:05:00,
2013-02-12 00:10:00,18.2,11.0,30.07,West,271,1.0,3.0,73,0.00,,BKN210,0.00,0.00,VWS V14.01,2013-02-12 07:10:00,
2013-02-12 00:15:00,18.6,11.4,30.07,WSW,254,3.0,4.0,73,0.00,,BKN210,0.00,0.00,VWS V14.01,2013-02-12 07:15:00,
2013-02-12 00:20:00,19.1,11.6,30.07,WSW,247,3.0,4.0,72,0.00,,BKN210,0.00,0.00,VWS V14.01,2013-02-12 07:20:00,
2013-02-12 00:25:00,20.0,11.5,30.06,West,273,3.0,4.0,69,0.00,,BKN210,0.00,0.00,VWS V14.01,2013-02-12 07:25:00,
2013-02-12 00:30:00,19.9,11.4,30.06,WNW,301,1.0,4.0,69,0.00,,BKN210,0.00,0.00,VWS V14.01,2013-02-12 07:30:00,
2013-02-12 00:35:00,19.5,11.0,30.06,WSW,257,1.0,4.0,69,0.00,,BKN210,0.00,0.00,VWS V14.01,2013-02-12 07:35:00,
2013-02-12 00:40:00,19.6,11.1,30.05,West,260,2.0,5.0,69,0.00,,BKN210,0.00,0.00,VWS V14.01,2013-02-12 07:40:00,
2013-02-12 00:46:00,19.8,11.3,30.05,West,273,0.0,5.0,69,0.00,,BKN210,0.00,0.00,VWS V14.01,2013-02-12 07:46:00,
2013-02-12 00:51:00,20.0,11.5,30.05,West,267,1.0,5.0,69,0.00,,BKN210,0.00,0.00,VWS V14.01,2013-02-12 07:51:00,
2013-02-12 00:56:00,20.0,11.5,30.05,West,265,1.0,5.0,69,0.00,,BKN210,0.00,0.00,VWS V14.01,2013-02-12 07:56:00,
2013-02-12 01:00:00,25.7,11.4,30.01,SSW,194,9.0,9.0,54,0.00,,OVC090,0.00,0.00,VWS V14.01,2013-02-12 08:00:00,
2013-02-12 01:01:00,20.2,11.7,30.05,West,272,1.0,5.0,69,0.00,,OVC130,0.00,0.00,VWS V14.01,2013-02-12 08:01:00,
2013-02-12 01:06:00,20.3,11.8,30.04,WSW,250,3.0,4.0,69,0.00,,OVC130,0.00,0.00,VWS V14.01,2013-02-12 08:06:00,
2013-02-12 01:11:00,20.3,11.8,30.04,West,276,1.0,4.0,69,0.00,,OVC130,0.00,0.00,VWS V14.01,2013-02-12 08:11:00,
2013-02-12 01:16:00,20.3,11.8,30.04,West,271,1.0,4.0,69,0.00,,OVC130,0.00,0.00,VWS V14.01,2013-02-12 08:16:00,
2013-02-12 01:21:00,21.1,12.5,30.04,WSW,258,2.0,4.0,69,0.00,,OVC130,0.00,0.00,VWS V14.01,2013-02-12 08:21:00,
2013-02-12 01:26:00,22.2,12.6,30.03,WNW,290,3.0,4.0,66,0.00,,OVC130,0.00,0.00,VWS V14.01,2013-02-12 08:26:00,
2013-02-12 01:30:00,24.6,11.6,30.01,SSW,199,6.0,13.0,57,0.00,,OVC090,0.00,0.00,VWS V14.01,2013-02-12 08:30:00,
2013-02-12 01:31:00,22.3,12.7,30.03,West,275,1.0,4.0,66,0.00,,OVC130,0.00,0.00,VWS V14.01,2013-02-12 08:31:00,
2013-02-12 01:36:00,24.1,13.3,30.02,SW,236,0.0,6.0,63,0.00,,OVC130,0.00,0.00,VWS V14.01,2013-02-12 08:36:00,
2013-02-12 01:41:00,26.5,13.3,30.01,SW,227,3.0,7.0,57,0.00,,OVC130,0.00,0.00,VWS V14.01,2013-02-12 08:41:00,
2013-02-12 01:46:00,27.2,12.8,30.01,SSW,211,3.0,7.0,54,0.00,,OVC130,0.00,0.00,VWS V14.01,2013-02-12 08:46:00,
2013-02-12 01:51:00,27.2,12.4,30.01,SSW,202,2.0,7.0,53,0.00,,OVC130,0.00,0.00,VWS V14.01,2013-02-12 08:51:00,
2013-02-12 01:56:00,25.9,11.6,30.01,SW,230,5.0,7.0,54,0.00,,OVC130,0.00,0.00,VWS V14.01,2013-02-12 08:56:00,
2013-02-12 02:00:00,24.6,10.8,30.01,West,270,2.0,12.0,55,0.00,,OVC090,0.00,0.00,VWS V14.01,2013-02-12 09:00:00,
2013-02-12 02:01:00,25.7,11.4,30.01,SSW,194,9.0,9.0,54,0.00,,BKN120,0.00,0.00,VWS V14.01,2013-02-12 09:01:00,
2013-02-12 02:06:00,24.7,11.2,30.01,SSW,195,6.0,12.0,56,0.00,,BKN120,0.00,0.00,VWS V14.01,2013-02-12 09:06:00,
2013-02-12 02:11:00,24.5,11.5,30.01,South,190,7.0,12.0,57,0.00,,BKN120,0.00,0.00,VWS V14.01,2013-02-12 09:11:00,
2013-02-12 02:16:00,24.9,11.4,30.01,SSW,211,6.0,12.0,56,0.00,,BKN120,0.00,0.00,VWS V14.01,2013-02-12 09:16:00,
2013-02-12 02:21:00,25.3,11.4,30.01,SSW,213,7.0,12.0,55,0.00,,BKN120,0.00,0.00,VWS V14.01,2013-02-12 09:21:00,
2013-02-12 02:26:00,24.9,11.4,30.01,South,180,8.0,13.0,56,0.00,,BKN120,0.00,0.00,VWS V14.01,2013-02-12 09:26:00,
2013-02-12 02:30:00,25.2,10.1,30.00,SW,226,0.0,6.0,52,0.00,,OVC090,0.00,0.00,VWS V14.01,2013-02-12 09:30:00,
2013-02-12 02:31:00,24.6,11.6,30.01,SSW,202,12.0,12.0,57,0.00,,BKN120,0.00,0.00,VWS V14.01,2013-02-12 09:31:00,
2013-02-12 02:36:00,24.9,11.8,30.01,SSW,200,2.0,12.0,57,0.00,,BKN120,0.00,0.00,VWS V14.01,2013-02-12 09:36:00,
2013-02-12 02:41:00,25.1,11.6,30.01,South,191,5.0,12.0,56,0.00,,BKN120,0.00,0.00,VWS V14.01,2013-02-12 09:41:00,
2013-02-12 02:46:00,25.0,11.5,30.01,SSW,211,3.0,12.0,56,0.00,,BKN120,0.00,0.00,VWS V14.01,2013-02-12 09:46:00,
2013-02-12 02:51:00,24.8,11.3,30.01,SSW,210,3.0,12.0,56,0.00,,BKN120,0.00,0.00,VWS V14.01,2013-02-12 09:51:00,
2013-02-12 02:56:00,24.6,11.2,30.01,NE,42,1.0,12.0,56,0.00,,BKN120,0.00,0.00,VWS V14.01,2013-02-12 09:56:00,
2013-02-12 03:00:00,20.4,10.9,30.02,WSW,244,0.0,4.0,66,0.00,,OVC090,0.00,0.00,VWS V14.01,2013-02-12 10:00:00,
2013-02-12 03:01:00,24.7,10.9,30.01,West,269,1.0,2.0,55,0.00,,SCT130,0.00,0.00,VWS V14.01,2013-02-12 10:01:00,
2013-02-12 03:06:00,25.1,10.8,30.00,West,274,4.0,5.0,54,0.00,,SCT130,0.00,0.00,VWS V14.01,2013-02-12 10:06:00,
2013-02-12 03:11:00,25.1,10.4,30.00,WSW,240,1.0,5.0,53,0.00,,SCT130,0.00,0.00,VWS V14.01,2013-02-12 10:11:00,
2013-02-12 03:16:00,25.2,10.1,30.00,SSW,213,5.0,6.0,52,0.00,,SCT130,0.00,0.00,VWS V14.01,2013-02-12 10:16:00,
2013-02-12 03:21:00,25.4,10.2,30.00,SW,232,1.0,6.0,52,0.00,,SCT130,0.00,0.00,VWS V14.01,2013-02-12 10:21:00,
2013-02-12 03:26:00,25.5,9.9,30.00,SW,228,0.0,6.0,51,0.00,,SCT130,0.00,0.00,VWS V14.01,2013-02-12 10:26:00,
2013-02-12 03:30:00,19.0,10.5,30.04,West,263,1.0,4.0,69,0.00,,OVC090,0.00,0.00,VWS V14.01,2013-02-12 10:30:00,
2013-02-12 03:31:00,25.2,10.1,30.00,SW,227,0.0,0.0,52,0.00,,SCT130,0.00,0.00,VWS V14.01,2013-02-12 10:31:00,
2013-02-12 03:36:00,24.5,10.2,30.00,SSW,209,0.0,4.0,54,0.00,,SCT130,0.00,0.00,VWS V14.01,2013-02-12 10:36:00,
2013-02-12 03:41:00,23.7,10.7,30.01,SW,233,1.0,4.0,57,0.00,,SCT130,0.00,0.00,VWS V14.01,2013-02-12 10:41:00,
2013-02-12 03:46:00,22.4,10.6,30.02,WSW,249,2.0,4.0,60,0.00,,SCT130,0.00,0.00,VWS V14.01,2013-02-12 10:46:00,
2013-02-12 03:51:00,21.6,11.0,30.02,West,261,1.0,4.0,63,0.00,,SCT130,0.00,0.00,VWS V14.01,2013-02-12 10:51:00,
2013-02-12 03:56:00,21.1,10.8,30.02,WSW,253,0.0,4.0,64,0.00,,SCT130,0.00,0.00,VWS V14.01,2013-02-12 10:56:00,
2013-02-12 04:00:00,18.5,10.7,30.05,WSW,251,1.0,4.0,71,0.00,,OVC090,0.00,0.00,VWS V14.01,2013-02-12 11:00:00,
2013-02-12 04:01:00,20.4,10.9,30.04,WSW,244,0.0,0.0,66,0.00,,SCT130,0.00,0.00,VWS V14.01,2013-02-12 11:01:00,
2013-02-12 04:06:00,19.9,10.7,30.04,WSW,257,0.0,2.0,67,0.00,,SCT130,0.00,0.00,VWS V14.01,2013-02-12 11:06:00,
2013-02-12 04:11:00,19.6,10.8,30.04,WSW,250,1.0,2.0,68,0.00,,SCT130,0.00,0.00,VWS V14.01,2013-02-12 11:11:00,
2013-02-12 04:16:00,19.4,10.6,30.04,West,268,2.0,3.0,68,0.00,,SCT130,0.00,0.00,VWS V14.01,2013-02-12 11:16:00,
2013-02-12 04:21:00,19.2,10.7,30.04,West,267,1.0,3.0,69,0.00,,SCT130,0.00,0.00,VWS V14.01,2013-02-12 11:21:00,
2013-02-12 04:26:00,19.1,10.6,30.05,WSW,257,3.0,4.0,69,0.00,,SCT130,0.00,0.00,VWS V14.01,2013-02-12 11:26:00,
2013-02-12 04:30:00,16.4,9.0,30.08,West,271,2.0,4.0,72,0.00,,OVC090,0.00,0.00,VWS V14.01,2013-02-12 11:30:00,
2013-02-12 04:31:00,18.9,10.4,30.05,West,265,1.0,1.0,69,0.00,,SCT130,0.00,0.00,VWS V14.01,2013-02-12 11:31:00,
2013-02-12 04:36:00,18.7,10.2,30.05,West,259,1.0,3.0,69,0.00,,SCT130,0.00,0.00,VWS V14.01,2013-02-12 11:36:00,
2013-02-12 04:41:00,18.6,10.5,30.05,WSW,256,1.0,3.0,70,0.00,,SCT130,0.00,0.00,VWS V14.01,2013-02-12 11:41:00,
2013-02-12 04:46:00,18.6,10.5,30.05,West,272,1.0,3.0,70,0.00,,SCT130,0.00,0.00,VWS V14.01,2013-02-12 11:46:00,
2013-02-12 04:51:00,18.6,10.5,30.05,West,266,1.0,3.0,70,0.00,,SCT130,0.00,0.00,VWS V14.01,2013-02-12 11:51:00,
2013-02-12 04:56:00,18.6,10.5,30.05,WSW,252,2.0,3.0,70,0.00,,SCT130,0.00,0.00,VWS V14.01,2013-02-12 11:56:00,
2013-02-12 05:00:00,15.4,9.2,30.08,West,277,1.0,4.0,76,0.00,,OVC090,0.00,0.00,VWS V14.01,2013-02-12 12:00:00,
2013-02-12 05:01:00,18.5,10.4,30.05,WSW,250,2.0,2.0,70,0.00,,FEW130,0.00,0.00,VWS V14.01,2013-02-12 12:01:00,
2013-02-12 05:06:00,18.3,10.5,30.07,WSW,243,4.0,4.0,71,0.00,,FEW130,0.00,0.00,VWS V14.01,2013-02-12 12:06:00,
2013-02-12 05:11:00,18.5,10.7,30.07,WSW,253,2.0,4.0,71,0.00,,FEW130,0.00,0.00,VWS V14.01,2013-02-12 12:11:00,
2013-02-12 05:16:00,18.4,10.3,30.07,West,275,1.0,4.0,70,0.00,,FEW130,0.00,0.00,VWS V14.01,2013-02-12 12:16:00,
2013-02-12 05:21:00,17.8,10.0,30.07,WNW,284,2.0,4.0,71,0.00,,FEW130,0.00,0.00,VWS V14.01,2013-02-12 12:21:00,
2013-02-12 05:26:00,17.1,9.3,30.08,West,279,3.0,4.0,71,0.00,,FEW130,0.00,0.00,VWS V14.01,2013-02-12 12:26:00,
2013-02-12 05:30:00,18.1,11.8,30.07,West,264,2.0,4.0,76,0.00,,OVC090,0.00,0.00,VWS V14.01,2013-02-12 12:30:00,
2013-02-12 05:31:00,16.4,9.0,30.08,West,271,3.0,3.0,72,0.00,,FEW130,0.00,0.00,VWS V14.01,2013-02-12 12:31:00,
2013-02-12 05:36:00,16.0,8.9,30.08,West,271,2.0,3.0,73,0.00,,FEW130,0.00,0.00,VWS V14.01,2013-02-12 12:36:00,
2013-02-12 05:41:00,15.7,8.9,30.08,West,260,0.0,3.0,74,0.00,,FEW130,0.00,0.00,VWS V14.01,2013-02-12 12:41:00,
2013-02-12 05:46:00,15.8,9.3,30.08,WNW,282,2.0,4.0,75,0.00,,FEW130,0.00,0.00,VWS V14.01,2013-02-12 12:46:00,
2013-02-12 05:51:00,15.8,9.3,30.08,WNW,286,1.0,4.0,75,0.00,,FEW130,0.00,0.00,VWS V14.01,2013-02-12 12:51:00,
2013-02-12 05:56:00,15.6,9.1,30.08,West,271,2.0,4.0,75,0.00,,FEW130,0.00,0.00,VWS V14.01,2013-02-12 12:56:00,
2013-02-12 06:00:00,21.1,13.2,30.07,West,261,1.0,4.0,71,0.00,,OVC090,0.00,11.00,VWS V14.01,2013-02-12 13:00:00,
2013-02-12 06:01:00,15.4,9.2,30.08,West,265,2.0,2.0,76,0.00,,SCT080,0.00,0.00,VWS V14.01,2013-02-12 13:01:00,
2013-02-12 06:06:00,15.6,9.7,30.08,West,276,2.0,3.0,77,0.00,,SCT080,0.00,0.00,VWS V14.01,2013-02-12 13:06:00,
2013-02-12 06:11:00,16.2,10.3,30.07,West,263,1.0,4.0,77,0.00,,SCT080,0.00,0.00,VWS V14.01,2013-02-12 13:11:00,
2013-02-12 06:16:00,16.7,10.8,30.08,West,273,2.0,4.0,77,0.00,,SCT080,0.00,0.00,VWS V14.01,2013-02-12 13:16:00,
2013-02-12 06:21:00,17.3,11.3,30.08,West,272,3.0,4.0,77,0.00,,SCT080,0.00,0.00,VWS V14.01,2013-02-12 13:21:00,
2013-02-12 06:26:00,17.7,11.7,30.07,West,267,1.0,4.0,77,0.00,,SCT080,0.00,0.00,VWS V14.01,2013-02-12 13:26:00,
2013-02-12 06:30:00,22.8,13.8,30.08,WSW,248,2.0,3.0,68,0.00,,OVC090,0.00,69.00,VWS V14.01,2013-02-12 13:30:00,
2013-02-12 06:31:00,18.1,11.8,30.07,West,264,2.0,3.0,76,0.00,,SCT080,0.00,0.00,VWS V14.01,2013-02-12 13:31:00,
2013-02-12 06:36:00,18.3,12.0,30.07,West,268,2.0,3.0,76,0.00,,SCT080,0.00,0.00,VWS V14.01,2013-02-12 13:36:00,
2013-02-12 06:41:00,18.6,12.3,30.07,West,263,1.0,4.0,76,0.00,,SCT080,0.00,0.00,VWS V14.01,2013-02-12 13:41:00,
2013-02-12 06:46:00,18.9,12.3,30.07,WSW,257,2.0,4.0,75,0.00,,SCT080,0.00,0.00,VWS V14.01,2013-02-12 13:46:00,
2013-02-12 06:51:00,19.7,12.8,30.07,WSW,244,1.0,4.0,74,0.00,,SCT080,0.00,0.00,VWS V14.01,2013-02-12 13:51:00,
2013-02-12 06:56:00,20.4,13.1,30.07,West,261,2.0,4.0,73,0.00,,SCT080,0.00,0.00,VWS V14.01,2013-02-12 13:56:00,
2013-02-12 07:00:00,22.7,14.7,30.09,NNE,24,1.0,3.0,71,0.00,,OVC090,0.00,79.00,VWS V14.01,2013-02-12 14:00:00,
2013-02-12 07:01:00,21.2,13.3,30.08,West,261,1.0,1.0,71,0.00,,BKN075,0.00,11.00,VWS V14.01,2013-02-12 14:01:00,
2013-02-12 07:06:00,21.5,13.6,30.08,West,261,2.0,3.0,71,0.00,,BKN075,0.00,16.00,VWS V14.01,2013-02-12 14:06:00,
2013-02-12 07:11:00,21.8,13.5,30.09,West,261,0.0,3.0,70,0.00,,BKN075,0.00,23.00,VWS V14.01,2013-02-12 14:11:00,
2013-02-12 07:16:00,22.0,13.7,30.09,West,260,1.0,3.0,70,0.00,,BKN075,0.00,18.00,VWS V14.01,2013-02-12 14:16:00,
2013-02-12 07:21:00,22.3,13.7,30.09,WSW,257,3.0,3.0,69,0.00,,BKN075,0.00,21.00,VWS V14.01,2013-02-12 14:21:00,
2013-02-12 07:26:00,22.5,13.9,30.08,WSW,252,2.0,3.0,69,0.00,,BKN075,0.00,30.00,VWS V14.01,2013-02-12 14:26:00,
2013-02-12 07:30:00,30.7,18.1,30.08,NNE,24,0.0,2.0,59,0.00,,OVC090,0.00,255.00,VWS V14.01,2013-02-12 14:30:00,
2013-02-12 07:31:00,22.8,13.8,30.08,WSW,248,2.0,2.0,68,0.00,,BKN075,0.00,69.00,VWS V14.01,2013-02-12 14:31:00,
2013-02-12 07:36:00,23.3,14.3,30.08,WSW,248,0.0,2.0,68,0.00,,BKN075,0.00,90.00,VWS V14.01,2013-02-12 14:36:00,
2013-02-12 07:41:00,22.2,13.3,30.09,NNE,22,0.0,3.0,68,0.00,,BKN075,0.00,109.00,VWS V14.01,2013-02-12 14:41:00,
2013-02-12 07:46:00,21.4,13.1,30.09,NNE,23,0.0,3.0,70,0.00,,BKN075,0.00,105.00,VWS V14.01,2013-02-12 14:46:00,
2013-02-12 07:51:00,20.9,13.0,30.10,NNE,23,2.0,3.0,71,0.00,,BKN075,0.00,162.00,VWS V14.01,2013-02-12 14:51:00,
2013-02-12 07:56:00,21.7,14.4,30.10,NNE,24,0.0,3.0,73,0.00,,BKN075,0.00,204.00,VWS V14.01,2013-02-12 14:56:00,
2013-02-12 08:00:00,35.2,20.7,30.07,NE,45,0.0,2.0,55,0.00,,OVC090,0.00,367.00,VWS V14.01,2013-02-12 15:00:00,
2013-02-12 08:01:00,22.8,14.8,30.10,NNE,24,1.0,2.0,71,0.00,,BKN075,0.00,74.00,VWS V14.01,2013-02-12 15:01:00,
2013-02-12 08:06:00,23.7,15.7,30.09,NNE,24,0.0,2.0,71,0.00,,BKN075,0.00,63.00,VWS V14.01,2013-02-12 15:06:00,
2013-02-12 08:11:00,24.6,16.2,30.09,NNE,24,0.0,2.0,70,0.00,,BKN075,0.00,181.00,VWS V14.01,2013-02-12 15:11:00,
2013-02-12 08:16:00,26.9,17.8,30.09,NNE,24,0.0,2.0,68,0.00,,BKN075,0.00,253.00,VWS V14.01,2013-02-12 15:16:00,
2013-02-12 08:21:00,28.3,18.1,30.08,NNE,24,0.0,2.0,65,0.00,,BKN075,0.00,102.00,VWS V14.01,2013-02-12 15:21:00,
2013-02-12 08:26:00,29.3,17.9,30.08,NNE,24,0.0,2.0,62,0.00,,BKN075,0.00,253.00,VWS V14.01,2013-02-12 15:26:00,
2013-02-12 08:30:00,38.9,19.4,30.06,SW,215,0.0,4.0,45,0.00,,OVC090,0.00,381.00,VWS V14.01,2013-02-12 15:30:00,
2013-02-12 08:31:00,30.9,18.3,30.08,NNE,24,0.0,0.0,59,0.00,,SCT070,0.00,257.00,VWS V14.01,2013-02-12 15:31:00,
2013-02-12 08:36:00,31.8,18.7,30.07,NNE,24,0.0,0.0,58,0.00,,SCT070,0.00,272.00,VWS V14.01,2013-02-12 15:36:00,
2013-02-12 08:41:00,32.3,18.0,30.08,NNE,24,0.0,0.0,55,0.00,,SCT070,0.00,278.00,VWS V14.01,2013-02-12 15:41:00,
2013-02-12 08:46:00,32.3,18.8,30.08,NE,39,1.0,2.0,57,0.00,,SCT070,0.00,311.00,VWS V14.01,2013-02-12 15:46:00,
2013-02-12 08:51:00,32.8,19.3,30.08,NE,45,0.0,2.0,57,0.00,,SCT070,0.00,343.00,VWS V14.01,2013-02-12 15:51:00,
2013-02-12 08:56:00,34.0,20.4,30.07,NE,46,0.0,2.0,57,0.00,,SCT070,0.00,352.00,VWS V14.01,2013-02-12 15:56:00,
2013-02-12 09:00:00,41.8,21.0,30.04,West,276,4.0,5.0,43,0.00,,OVC090,0.00,441.00,VWS V14.01,2013-02-12 16:00:00,
2013-02-12 09:01:00,35.3,20.8,30.07,NE,45,0.0,0.0,55,0.00,,SCT080,0.00,355.00,VWS V14.01,2013-02-12 16:01:00,
2013-02-12 09:06:00,35.6,20.6,30.06,ENE,63,2.0,2.0,54,0.00,,SCT080,0.00,366.00,VWS V14.01,2013-02-12 16:06:00,
2013-02-12 09:11:00,36.7,20.8,30.06,South,178,0.0,3.0,52,0.00,,SCT080,0.00,390.00,VWS V14.01,2013-02-12 16:11:00,
2013-02-12 09:16:00,37.6,18.7,30.06,South,178,0.0,3.0,46,0.00,,SCT080,0.00,366.00,VWS V14.01,2013-02-12 16:16:00,
2013-02-12 09:21:00,37.9,18.5,30.06,SW,226,2.0,4.0,45,0.00,,SCT080,0.00,364.00,VWS V14.01,2013-02-12 16:21:00,
2013-02-12 09:26:00,38.6,18.6,30.06,WSW,248,0.0,4.0,44,0.00,,SCT080,0.00,373.00,VWS V14.01,2013-02-12 16:26:00,
2013-02-12 09:30:00,43.4,23.0,30.05,NW,317,1.0,7.0,44,0.00,,OVC090,0.00,364.00,VWS V14.01,2013-02-12 16:30:00,
2013-02-12 09:31:00,39.0,19.5,30.06,SW,215,1.0,1.0,45,0.00,,SCT080,0.00,383.00,VWS V14.01,2013-02-12 16:31:00,
2013-02-12 09:36:00,40.4,20.2,30.05,SW,218,0.0,2.0,44,0.00,,SCT080,0.00,394.00,VWS V14.01,2013-02-12 16:36:00,
2013-02-12 09:41:00,40.3,19.6,30.05,WSW,252,0.0,3.0,43,0.00,,SCT080,0.00,404.00,VWS V14.01,2013-02-12 16:41:00,
2013-02-12 09:46:00,41.1,20.3,30.05,WSW,253,1.0,3.0,43,0.00,,SCT080,0.00,415.00,VWS V14.01,2013-02-12 16:46:00,
2013-02-12 09:51:00,41.2,20.4,30.05,WSW,252,1.0,3.0,43,0.00,,SCT080,0.00,424.00,VWS V14.01,2013-02-12 16:51:00,
2013-02-12 09:56:00,41.4,20.0,30.04,WSW,254,2.0,5.0,42,0.00,,SCT080,0.00,432.00,VWS V14.01,2013-02-12 16:56:00,
2013-02-12 10:00:00,43.2,23.8,30.05,NW,309,14.0,19.0,46,0.00,,OVC090,0.00,404.00,VWS V14.01,2013-02-12 17:00:00,
2013-02-12 10:01:00,41.9,20.5,30.05,West,277,1.0,5.0,42,0.00,,SCT080,0.00,443.00,VWS V14.01,2013-02-12 17:01:00,
2013-02-12 10:06:00,42.7,21.2,30.05,NW,323,5.0,5.0,42,0.00,,SCT080,0.00,450.00,VWS V14.01,2013-02-12 17:06:00,
2013-02-12 10:12:00,43.3,22.3,30.05,West,268,2.0,5.0,43,0.00,,SCT080,0.00,461.00,VWS V14.01,2013-02-12 17:12:00,
2013-02-12 10:17:00,43.5,22.0,30.04,West,263,3.0,5.0,42,0.00,,SCT080,0.00,478.00,VWS V14.01,2013-02-12 17:17:00,
2013-02-12 10:22:00,43.2,22.2,30.05,North,349,1.0,7.0,43,0.00,,SCT080,0.00,512.00,VWS V14.01,2013-02-12 17:22:00,
2013-02-12 10:27:00,42.9,22.0,30.05,North,355,2.0,7.0,43,0.00,,SCT080,0.00,336.00,VWS V14.01,2013-02-12 17:27:00,
2013-02-12 10:30:00,43.1,24.3,30.04,WNW,298,18.0,22.0,47,0.00,,OVC090,0.00,374.00,VWS V14.01,2013-02-12 17:30:00,
2013-02-12 10:32:00,43.6,23.1,30.05,NW,317,0.0,1.0,44,0.00,,CLR,0.00,427.00,VWS V14.01,2013-02-12 17:32:00,
2013-02-12 10:37:00,44.8,23.7,30.04,West,275,3.0,4.0,43,0.00,,CLR,0.00,633.00,VWS V14.01,2013-02-12 17:37:00,
2013-02-12 10:42:00,44.8,23.1,30.04,NW,326,5.0,11.0,42,0.00,,CLR,0.00,485.00,VWS V14.01,2013-02-12 17:42:00,
2013-02-12 10:47:00,44.2,23.1,30.04,NNW,341,6.0,15.0,43,0.00,,CLR,0.00,341.00,VWS V14.01,2013-02-12 17:47:00,
2013-02-12 10:52:00,43.1,22.7,30.05,WNW,294,19.0,19.0,44,0.00,,CLR,0.00,323.00,VWS V14.01,2013-02-12 17:52:00,
2013-02-12 10:57:00,43.1,23.7,30.05,WNW,291,10.0,19.0,46,0.00,,CLR,0.00,359.00,VWS V14.01,2013-02-12 17:57:00,
2013-02-12 11:00:00,43.5,25.6,30.02,NNW,337,13.0,26.0,49,0.00,,OVC090,0.00,492.00,VWS V14.01,2013-02-12 18:00:00,
2013-02-12 11:02:00,43.1,23.7,30.05,WNW,298,9.0,14.0,46,0.00,,OVC080,0.00,387.00,VWS V14.01,2013-02-12 18:02:00,
2013-02-12 11:07:00,43.0,24.2,30.05,NNW,336,15.0,16.0,47,0.00,,OVC080,0.00,345.00,VWS V14.01,2013-02-12 18:07:00,
2013-02-12 11:12:00,42.9,24.1,30.05,NW,323,13.0,18.0,47,0.00,,OVC080,0.00,417.00,VWS V14.01,2013-02-12 18:12:00,
2013-02-12 11:17:00,43.0,24.2,30.04,NW,321,13.0,18.0,47,0.00,,OVC080,0.00,468.00,VWS V14.01,2013-02-12 18:17:00,
2013-02-12 11:22:00,43.1,24.8,30.04,NNE,14,15.0,20.0,48,0.00,,OVC080,0.00,378.00,VWS V14.01,2013-02-12 18:22:00,
2013-02-12 11:27:00,43.0,24.2,30.04,WNW,288,18.0,22.0,47,0.00,,OVC080,0.00,450.00,VWS V14.01,2013-02-12 18:27:00,
2013-02-12 11:30:00,44.3,25.4,30.00,NW,321,19.0,24.0,47,0.00,,OVC090,0.00,436.00,VWS V14.01,2013-02-12 18:30:00,
2013-02-12 11:32:00,43.0,23.6,30.04,NW,315,15.0,24.0,46,0.00,,OVC080,0.00,332.00,VWS V14.01,2013-02-12 18:32:00,
2013-02-12 11:37:00,43.2,24.9,30.04,NW,318,13.0,24.0,48,0.00,,OVC080,0.00,364.00,VWS V14.01,2013-02-12 18:37:00,
2013-02-12 11:42:00,43.6,24.7,30.02,NNW,328,18.0,26.0,47,0.00,,OVC080,0.00,476.00,VWS V14.01,2013-02-12 18:42:00,
2013-02-12 11:47:00,43.5,25.1,30.02,NW,326,13.0,26.0,48,0.00,,OVC080,0.00,420.00,VWS V14.01,2013-02-12 18:47:00,
2013-02-12 11:52:00,43.7,25.8,30.02,North,360,17.0,26.0,49,0.00,,OVC080,0.00,401.00,VWS V14.01,2013-02-12 18:52:00,
2013-02-12 11:57:00,43.4,25.0,30.03,NNE,16,7.0,26.0,48,0.00,,OVC080,0.00,362.00,VWS V14.01,2013-02-12 18:57:00,
2013-02-12 12:00:00,44.2,24.8,30.00,North,349,12.0,23.0,46,0.00,,OVC090,0.00,390.00,VWS V14.01,2013-02-12 19:00:00,
2013-02-12 12:02:00,43.6,25.2,30.01,NW,317,15.0,18.0,48,0.00,,OVC080,0.00,392.00,VWS V14.01,2013-02-12 19:02:00,
2013-02-12 12:07:00,43.5,25.1,30.01,NW,309,10.0,23.0,48,0.00,,OVC080,0.00,445.00,VWS V14.01,2013-02-12 19:07:00,
2013-02-12 12:12:00,43.7,25.3,30.01,NNW,333,19.0,24.0,48,0.00,,OVC080,0.00,691.00,VWS V14.01,2013-02-12 19:12:00,
2013-02-12 12:17:00,44.0,26.1,30.01,NNW,336,21.0,24.0,49,0.00,,OVC080,0.00,684.00,VWS V14.01,2013-02-12 19:17:00,
2013-02-12 12:22:00,44.1,25.2,30.01,North,355,15.0,24.0,47,0.00,,OVC080,0.00,682.00,VWS V14.01,2013-02-12 19:22:00,
2013-02-12 12:27:00,44.1,25.7,30.00,NW,319,13.0,24.0,48,0.00,,OVC080,0.00,654.00,VWS V14.01,2013-02-12 19:27:00,
2013-02-12 12:30:00,44.6,24.6,29.97,NNW,334,12.0,26.0,45,0.00,,OVC090,0.00,204.00,VWS V14.01,2013-02-12 19:30:00,
2013-02-12 12:32:00,44.4,24.9,30.00,NW,311,13.0,20.0,46,0.00,,OVC080,0.00,436.00,VWS V14.01,2013-02-12 19:32:00,
2013-02-12 12:37:00,44.6,25.1,30.00,North,355,10.0,22.0,46,0.00,,OVC080,0.00,406.00,VWS V14.01,2013-02-12 19:37:00,
2013-02-12 12:42:00,44.6,25.1,30.00,WNW,285,15.0,22.0,46,0.00,,OVC080,0.00,388.00,VWS V14.01,2013-02-12 19:42:00,
2013-02-12 12:47:00,44.1,25.2,30.00,NNW,338,13.0,22.0,47,0.00,,OVC080,0.00,318.00,VWS V14.01,2013-02-12 19:47:00,
2013-02-12 12:52:00,44.0,24.6,30.00,NNW,333,12.0,23.0,46,0.00,,OVC080,0.00,330.00,VWS V14.01,2013-02-12 19:52:00,
2013-02-12 12:57:00,44.4,24.9,30.00,NNW,331,9.0,23.0,46,0.00,,OVC080,0.00,371.00,VWS V14.01,2013-02-12 19:57:00,
2013-02-12 13:00:00,45.7,23.4,29.96,WNW,300,20.0,23.0,41,0.00,,OVC090,0.00,441.00,VWS V14.01,2013-02-12 20:00:00,
2013-02-12 13:02:00,44.2,24.8,29.98,NW,321,13.0,16.0,46,0.00,,BKN080,0.00,378.00,VWS V14.01,2013-02-12 20:02:00,
2013-02-12 13:07:00,44.3,24.8,29.97,NNW,337,15.0,22.0,46,0.00,,BKN080,0.00,366.00,VWS V14.01,2013-02-12 20:07:00,
2013-02-12 13:12:00,45.1,25.6,29.97,NW,318,18.0,22.0,46,0.00,,BKN080,0.00,656.00,VWS V14.01,2013-02-12 20:12:00,
2013-02-12 13:17:00,44.7,24.7,29.97,NNW,340,11.0,22.0,45,0.00,,BKN080,0.00,297.00,VWS V14.01,2013-02-12 20:17:00,
2013-02-12 13:22:00,44.3,23.8,29.97,NNW,330,11.0,26.0,44,0.00,,BKN080,0.00,253.00,VWS V14.01,2013-02-12 20:22:00,
2013-02-12 13:27:00,45.0,24.4,29.97,North,9,11.0,26.0,44,0.00,,BKN080,0.00,216.00,VWS V14.01,2013-02-12 20:27:00,
2013-02-12 13:30:00,45.4,23.1,29.96,NNW,346,10.0,22.0,41,0.00,,OVC090,0.00,364.00,VWS V14.01,2013-02-12 20:30:00,
2013-02-12 13:32:00,44.6,24.6,29.97,NW,320,9.0,14.0,45,0.00,,BKN080,0.00,218.00,VWS V14.01,2013-02-12 20:32:00,
2013-02-12 13:37:00,44.8,24.2,29.96,WNW,300,9.0,22.0,44,0.00,,BKN080,0.00,424.00,VWS V14.01,2013-02-12 20:37:00,
2013-02-12 13:42:00,45.5,24.3,29.96,North,360,8.0,22.0,43,0.00,,BKN080,0.00,461.00,VWS V14.01,2013-02-12 20:42:00,
2013-02-12 13:47:00,45.2,24.0,29.96,NNW,338,13.0,22.0,43,0.00,,BKN080,0.00,237.00,VWS V14.01,2013-02-12 20:47:00,
2013-02-12 13:52:00,45.2,24.0,29.96,NW,318,19.0,22.0,43,0.00,,BKN080,0.00,308.00,VWS V14.01,2013-02-12 20:52:00,
2013-02-12 13:57:00,45.8,24.0,29.95,NNW,330,18.0,23.0,42,0.00,,BKN080,0.00,446.00,VWS V14.01,2013-02-12 20:57:00,
2013-02-12 14:00:00,44.5,22.9,29.96,NNW,341,14.0,19.0,42,0.00,,OVC090,0.00,299.00,VWS V14.01,2013-02-12 21:00:00,
2013-02-12 14:02:00,45.7,23.4,29.96,North,350,12.0,21.0,41,0.00,,BKN080,0.00,438.00,VWS V14.01,2013-02-12 21:02:00,
2013-02-12 14:07:00,45.8,23.5,29.96,North,360,15.0,22.0,41,0.00,,BKN080,0.00,417.00,VWS V14.01,2013-02-12 21:07:00,
2013-02-12 14:12:00,45.8,23.5,29.96,WNW,302,14.0,22.0,41,0.00,,BKN080,0.00,406.00,VWS V14.01,2013-02-12 21:12:00,
2013-02-12 14:17:00,46.1,23.7,29.96,NW,317,18.0,22.0,41,0.00,,BKN080,0.00,394.00,VWS V14.01,2013-02-12 21:17:00,
2013-02-12 14:22:00,45.6,23.3,29.96,NNW,342,16.0,22.0,41,0.00,,BKN080,0.00,380.00,VWS V14.01,2013-02-12 21:22:00,
2013-02-12 14:27:00,45.6,23.3,29.96,NW,325,12.0,22.0,41,0.00,,BKN080,0.00,371.00,VWS V14.01,2013-02-12 21:27:00,
2013-02-12 14:30:00,43.6,23.1,29.98,NNE,20,12.0,24.0,44,0.00,,OVC090,0.00,218.00,VWS V14.01,2013-02-12 21:30:00,
2013-02-12 14:32:00,45.5,23.2,29.96,WNW,298,12.0,17.0,41,0.00,,SCT080,0.00,360.00,VWS V14.01,2013-02-12 21:32:00,
2013-02-12 14:37:00,45.3,23.0,29.96,NW,311,12.0,17.0,41,0.00,,SCT080,0.00,350.00,VWS V14.01,2013-02-12 21:37:00,
2013-02-12 14:42:00,45.4,23.1,29.96,NNW,341,9.0,18.0,41,0.00,,SCT080,0.00,338.00,VWS V14.01,2013-02-12 21:42:00,
2013-02-12 14:47:00,45.5,23.2,29.96,NNW,345,15.0,18.0,41,0.00,,SCT080,0.00,329.00,VWS V14.01,2013-02-12 21:47:00,
2013-02-12 14:52:00,45.0,23.3,29.96,North,360,12.0,18.0,42,0.00,,SCT080,0.00,320.00,VWS V14.01,2013-02-12 21:52:00,
2013-02-12 14:57:00,44.6,22.9,29.96,NNW,341,15.0,18.0,42,0.00,,SCT080,0.00,309.00,VWS V14.01,2013-02-12 21:57:00,
2013-02-12 15:00:00,42.7,23.4,29.99,NW,310,13.0,23.0,46,0.00,,OVC090,0.00,72.00,VWS V14.01,2013-02-12 22:00:00,
2013-02-12 15:02:00,44.6,23.5,29.98,NW,313,11.0,15.0,43,0.00,,CLR,0.00,297.00,VWS V14.01,2013-02-12 22:02:00,
2013-02-12 15:07:00,44.5,22.9,29.98,NNW,327,13.0,19.0,42,0.00,,CLR,0.00,287.00,VWS V14.01,2013-02-12 22:07:00,
2013-02-12 15:12:00,44.3,23.2,29.98,NNW,341,16.0,19.0,43,0.00,,CLR,0.00,274.00,VWS V14.01,2013-02-12 22:12:00,
2013-02-12 15:17:00,44.1,23.0,29.98,NW,321,6.0,19.0,43,0.00,,CLR,0.00,260.00,VWS V14.01,2013-02-12 22:17:00,
2013-02-12 15:22:00,43.9,23.4,29.98,North,349,10.0,19.0,44,0.00,,CLR,0.00,246.00,VWS V14.01,2013-02-12 22:22:00,
2013-02-12 15:27:00,43.8,23.3,29.98,North,355,12.0,24.0,44,0.00,,CLR,0.00,236.00,VWS V14.01,2013-02-12 22:27:00,
2013-02-12 15:30:00,41.0,22.3,30.01,NW,311,19.0,23.0,47,0.00,,OVC090,0.00,51.00,VWS V14.01,2013-02-12 22:30:00,
2013-02-12 15:32:00,43.4,23.0,29.98,NNW,331,11.0,18.0,44,0.00,,CLR,0.00,213.00,VWS V14.01,2013-02-12 22:32:00,
2013-02-12 15:37:00,43.1,23.2,29.99,WNW,285,18.0,20.0,45,0.00,,CLR,0.00,211.00,VWS V14.01,2013-02-12 22:37:00,
2013-02-12 15:42:00,42.7,23.4,29.99,North,355,17.0,20.0,46,0.00,,CLR,0.00,195.00,VWS V14.01,2013-02-12 22:42:00,
2013-02-12 15:47:00,42.9,23.6,29.99,North,5,10.0,20.0,46,0.00,,CLR,0.00,183.00,VWS V14.01,2013-02-12 22:47:00,
2013-02-12 15:52:00,42.8,23.0,29.99,NNW,343,14.0,21.0,45,0.00,,CLR,0.00,167.00,VWS V14.01,2013-02-12 22:52:00,
2013-02-12 15:57:00,42.7,22.9,29.99,WNW,292,15.0,23.0,45,0.00,,CLR,0.00,142.00,VWS V14.01,2013-02-12 22:57:00,
2013-02-12 16:00:00,40.4,22.3,30.00,NW,325,18.0,22.0,48,0.00,,OVC090,0.00,14.00,VWS V14.01,2013-02-12 23:00:00,
2013-02-12 16:02:00,42.5,23.2,29.99,NNW,329,13.0,20.0,46,0.00,,CLR,0.00,113.00,VWS V14.01,2013-02-12 23:02:00,
2013-02-12 16:07:00,42.1,22.8,30.00,WNW,299,12.0,22.0,46,0.00,,CLR,0.00,91.00,VWS V14.01,2013-02-12 23:07:00,
2013-02-12 16:12:00,41.8,22.5,30.00,NW,317,13.0,23.0,46,0.00,,CLR,0.00,46.00,VWS V14.01,2013-02-12 23:12:00,
2013-02-12 16:17:00,41.5,22.3,30.00,NNW,343,7.0,23.0,46,0.00,,CLR,0.00,51.00,VWS V14.01,2013-02-12 23:17:00,
2013-02-12 16:22:00,41.3,22.6,30.00,NNW,345,17.0,23.0,47,0.00,,CLR,0.00,37.00,VWS V14.01,2013-02-12 23:22:00,
2013-02-12 16:27:00,41.0,22.3,30.00,NNW,346,17.0,23.0,47,0.00,,CLR,0.00,47.00,VWS V14.01,2013-02-12 23:27:00,
2013-02-12 16:30:00,39.3,21.8,30.03,NW,306,10.0,19.0,49,0.00,,OVC090,0.00,0.00,VWS V14.01,2013-02-12 23:30:00,
2013-02-12 16:32:00,41.0,22.3,30.00,NW,319,12.0,22.0,47,0.00,,CLR,0.00,39.00,VWS V14.01,2013-02-12 23:32:00,
2013-02-12 16:37:00,40.8,22.1,30.00,NNW,329,15.0,22.0,47,0.00,,CLR,0.00,35.00,VWS V14.01,2013-02-12 23:37:00,
2013-02-12 16:42:00,40.8,22.1,30.00,NW,313,16.0,22.0,47,0.00,,CLR,0.00,25.00,VWS V14.01,2013-02-12 23:42:00,
2013-02-12 16:47:00,40.6,22.0,30.00,NNW,345,14.0,22.0,47,0.00,,CLR,0.00,19.00,VWS V14.01,2013-02-12 23:47:00,
2013-02-12 16:52:00,40.4,22.3,30.00,NW,306,10.0,22.0,48,0.00,,CLR,0.00,16.00,VWS V14.01,2013-02-12 23:52:00,
2013-02-12 16:57:00,40.5,22.4,30.00,NW,325,17.0,22.0,48,0.00,,CLR,0.00,16.00,VWS V14.01,2013-02-12 23:57:00,
2013-02-12 17:00:00,38.8,22.2,30.04,NNE,21,2.0,15.0,51,0.00,,OVC090,0.00,0.00,VWS V14.01,2013-02-13 00:00:00,
2013-02-12 17:02:00,40.4,22.3,30.02,NNW,344,15.0,19.0,48,0.00,,CLR,0.00,12.00,VWS V14.01,2013-02-13 00:02:00,
2013-02-12 17:07:00,40.4,22.3,30.02,NNW,338,15.0,19.0,48,0.00,,CLR,0.00,11.00,VWS V14.01,2013-02-13 00:07:00,
2013-02-12 17:12:00,40.2,22.1,30.02,NNW,333,14.0,19.0,48,0.00,,CLR,0.00,7.00,VWS V14.01,2013-02-13 00:12:00,
2013-02-12 17:17:00,39.8,21.7,30.03,North,355,6.0,19.0,48,0.00,,CLR,0.00,5.00,VWS V14.01,2013-02-13 00:17:00,
2013-02-12 17:22:00,39.5,21.9,30.03,NNW,338,10.0,19.0,49,0.00,,CLR,0.00,0.00,VWS V14.01,2013-02-13 00:22:00,
2013-02-12 17:27:00,39.5,21.9,30.03,NNW,338,13.0,19.0,49,0.00,,CLR,0.00,0.00,VWS V14.01,2013-02-13 00:27:00,
2013-02-12 17:30:00,36.5,22.3,30.03,WSW,242,3.0,7.0,56,0.00,,OVC090,0.00,0.00,VWS V14.01,2013-02-13 00:30:00,
2013-02-12 17:32:00,39.1,22.0,30.03,NW,322,12.0,14.0,50,0.00,,FEW120,0.00,0.00,VWS V14.01,2013-02-13 00:32:00,
2013-02-12 17:37:00,38.7,22.1,30.04,NNW,329,7.0,15.0,51,0.00,,FEW120,0.00,0.00,VWS V14.01,2013-02-13 00:37:00,
2013-02-12 17:42:00,38.3,21.8,30.04,WNW,301,10.0,15.0,51,0.00,,FEW120,0.00,0.00,VWS V14.01,2013-02-13 00:42:00,
2013-02-12 17:47:00,38.3,21.8,30.04,WNW,284,10.0,15.0,51,0.00,,FEW120,0.00,0.00,VWS V14.01,2013-02-13 00:47:00,
2013-02-12 17:53:00,38.6,22.0,30.04,NW,315,5.0,15.0,51,0.00,,FEW120,0.00,0.00,VWS V14.01,2013-02-13 00:53:00,
2013-02-12 17:58:00,38.8,22.2,30.04,WSW,252,5.0,15.0,51,0.00,,FEW120,0.00,0.00,VWS V14.01,2013-02-13 00:58:00,
2013-02-12 18:00:00,38.1,22.0,30.03,West,261,5.0,10.0,52,0.00,,OVC090,0.00,0.00,VWS V14.01,2013-02-13 01:00:00,
2013-02-12 18:03:00,38.7,22.1,30.02,West,273,3.0,6.0,51,0.00,,OVC140,0.00,0.00,VWS V14.01,2013-02-13 01:03:00,
2013-02-12 18:08:00,38.4,22.3,30.03,West,279,3.0,6.0,52,0.00,,OVC140,0.00,0.00,VWS V14.01,2013-02-13 01:08:00,
2013-02-12 18:13:00,38.0,22.4,30.03,SW,229,2.0,6.0,53,0.00,,OVC140,0.00,0.00,VWS V14.01,2013-02-13 01:13:00,
2013-02-12 18:18:00,36.9,22.3,30.03,SW,225,4.0,6.0,55,0.00,,OVC140,0.00,0.00,VWS V14.01,2013-02-13 01:18:00,
2013-02-12 18:23:00,36.4,22.2,30.04,WSW,252,4.0,6.0,56,0.00,,OVC140,0.00,0.00,VWS V14.01,2013-02-13 01:23:00,
2013-02-12 18:28:00,36.4,22.2,30.04,WSW,245,5.0,7.0,56,0.00,,OVC140,0.00,0.00,VWS V14.01,2013-02-13 01:28:00,
2013-02-12 18:30:00,36.5,21.5,30.01,SW,230,4.0,9.0,54,0.00,,OVC090,0.00,0.00,VWS V14.01,2013-02-13 01:30:00,
2013-02-12 18:33:00,36.5,22.3,30.03,WSW,255,5.0,6.0,56,0.00,,OVC140,0.00,0.00,VWS V14.01,2013-02-13 01:33:00,
2013-02-12 18:38:00,37.2,22.5,30.03,WSW,252,5.0,9.0,55,0.00,,OVC140,0.00,0.00,VWS V14.01,2013-02-13 01:38:00,
2013-02-12 18:43:00,37.8,22.7,30.03,West,260,5.0,10.0,54,0.00,,OVC140,0.00,0.00,VWS V14.01,2013-02-13 01:43:00,
2013-02-12 18:48:00,38.0,22.4,30.03,WSW,244,5.0,10.0,53,0.00,,OVC140,0.00,0.00,VWS V14.01,2013-02-13 01:48:00,
2013-02-12 18:53:00,38.1,22.0,30.03,West,260,6.0,10.0,52,0.00,,OVC140,0.00,0.00,VWS V14.01,2013-02-13 01:53:00,
2013-02-12 18:58:00,38.1,22.0,30.03,WSW,243,4.0,10.0,52,0.00,,OVC140,0.00,0.00,VWS V14.01,2013-02-13 01:58:00,
2013-02-12 19:00:00,35.7,21.6,30.02,West,259,4.0,6.0,56,0.00,,OVC090,0.00,0.00,VWS V14.01,2013-02-13 02:00:00,
2013-02-12 19:03:00,37.9,21.9,30.02,WSW,257,5.0,8.0,52,0.00,,OVC080,0.00,0.00,VWS V14.01,2013-02-13 02:03:00,
2013-02-12 19:08:00,37.7,21.7,30.02,WSW,249,5.0,9.0,52,0.00,,OVC080,0.00,0.00,VWS V14.01,2013-02-13 02:08:00,
2013-02-12 19:13:00,37.6,22.0,30.02,SW,236,6.0,9.0,53,0.00,,OVC080,0.00,0.00,VWS V14.01,2013-02-13 02:13:00,
2013-02-12 19:18:00,37.3,21.8,30.02,WSW,239,5.0,9.0,53,0.00,,OVC080,0.00,0.00,VWS V14.01,2013-02-13 02:18:00,
2013-02-12 19:23:00,37.1,21.6,30.01,SW,228,4.0,9.0,53,0.00,,OVC080,0.00,0.00,VWS V14.01,2013-02-13 02:23:00,
2013-02-12 19:28:00,36.7,21.6,30.02,SW,234,3.0,9.0,54,0.00,,OVC080,0.00,0.00,VWS V14.01,2013-02-13 02:28:00,
2013-02-12 19:30:00,35.2,21.9,29.98,West,261,2.0,5.0,58,0.00,,OVC090,0.00,0.00,VWS V14.01,2013-02-13 02:30:00,
2013-02-12 19:33:00,36.4,21.4,30.02,SW,230,4.0,6.0,54,0.00,,OVC080,0.00,0.00,VWS V14.01,2013-02-13 02:33:00,
2013-02-12 19:38:00,36.1,21.5,30.02,SW,228,2.0,6.0,55,0.00,,OVC080,0.00,0.00,VWS V14.01,2013-02-13 02:38:00,
2013-02-12 19:43:00,35.8,21.2,30.02,SW,229,4.0,6.0,55,0.00,,OVC080,0.00,0.00,VWS V14.01,2013-02-13 02:43:00,
2013-02-12 19:48:00,35.6,21.5,30.02,SW,227,1.0,6.0,56,0.00,,OVC080,0.00,0.00,VWS V14.01,2013-02-13 02:48:00,
2013-02-12 19:53:00,35.6,21.5,30.02,SW,229,3.0,6.0,56,0.00,,OVC080,0.00,0.00,VWS V14.01,2013-02-13 02:53:00,
2013-02-12 19:58:00,35.8,21.6,30.02,WSW,248,3.0,6.0,56,0.00,,OVC080,0.00,0.00,VWS V14.01,2013-02-13 02:58:00,
2013-02-12 20:00:00,35.7,22.8,29.97,WSW,239,3.0,6.0,59,0.00,,OVC090,0.00,0.00,VWS V14.01,2013-02-13 03:00:00,
2013-02-12 20:03:00,35.6,21.5,29.98,West,259,2.0,4.0,56,0.00,,SCT120,0.00,0.00,VWS V14.01,2013-02-13 03:03:00,
2013-02-12 20:08:00,35.0,21.3,29.98,West,263,3.0,4.0,57,0.00,,SCT120,0.00,0.00,VWS V14.01,2013-02-13 03:08:00,
2013-02-12 20:13:00,34.8,21.5,29.98,WSW,245,3.0,4.0,58,0.00,,SCT120,0.00,0.00,VWS V14.01,2013-02-13 03:13:00,
2013-02-12 20:18:00,34.8,22.0,29.98,WSW,245,2.0,4.0,59,0.00,,SCT120,0.00,0.00,VWS V14.01,2013-02-13 03:18:00,
2013-02-12 20:23:00,35.0,21.7,29.98,West,262,3.0,4.0,58,0.00,,SCT120,0.00,0.00,VWS V14.01,2013-02-13 03:23:00,
2013-02-12 20:28:00,35.2,21.9,29.98,WSW,248,3.0,4.0,58,0.00,,SCT120,0.00,0.00,VWS V14.01,2013-02-13 03:28:00,
2013-02-12 20:30:00,37.2,23.8,29.94,SW,236,3.0,8.0,58,0.00,,OVC090,0.00,0.00,VWS V14.01,2013-02-13 03:30:00,
2013-02-12 20:33:00,35.3,22.0,29.98,WSW,254,3.0,5.0,58,0.00,,SCT120,0.00,0.00,VWS V14.01,2013-02-13 03:33:00,
2013-02-12 20:38:00,35.3,22.0,29.97,WSW,246,2.0,5.0,58,0.00,,SCT120,0.00,0.00,VWS V14.01,2013-02-13 03:38:00,
2013-02-12 20:43:00,35.2,21.9,29.97,WSW,248,2.0,5.0,58,0.00,,SCT120,0.00,0.00,VWS V14.01,2013-02-13 03:43:00,
2013-02-12 20:48:00,35.1,22.2,29.97,WSW,246,4.0,5.0,59,0.00,,SCT120,0.00,0.00,VWS V14.01,2013-02-13 03:48:00,
2013-02-12 20:53:00,35.4,22.5,29.97,WSW,238,3.0,6.0,59,0.00,,SCT120,0.00,0.00,VWS V14.01,2013-02-13 03:53:00,
2013-02-12 20:58:00,35.6,22.7,29.97,WSW,240,3.0,6.0,59,0.00,,SCT120,0.00,0.00,VWS V14.01,2013-02-13 03:58:00,
2013-02-12 21:00:00,37.3,23.9,29.92,WSW,252,4.0,9.0,58,0.00,,OVC090,0.00,0.00,VWS V14.01,2013-02-13 04:00:00,
2013-02-12 21:03:00,35.8,22.9,29.95,WSW,239,2.0,4.0,59,0.00,,SCT120,0.00,0.00,VWS V14.01,2013-02-13 04:03:00,
2013-02-12 21:08:00,35.9,23.0,29.94,WSW,245,3.0,6.0,59,0.00,,SCT120,0.00,0.00,VWS V14.01,2013-02-13 04:08:00,
2013-02-12 21:13:00,36.0,23.1,29.94,SW,225,4.0,6.0,59,0.00,,SCT120,0.00,0.00,VWS V14.01,2013-02-13 04:13:00,
2013-02-12 21:18:00,36.1,23.6,29.94,SW,236,4.0,6.0,60,0.00,,SCT120,0.00,0.00,VWS V14.01,2013-02-13 04:18:00,
2013-02-12 21:23:00,36.6,23.6,29.94,SW,236,5.0,6.0,59,0.00,,SCT120,0.00,0.00,VWS V14.01,2013-02-13 04:23:00,
2013-02-12 21:28:00,37.0,23.6,29.94,West,263,4.0,8.0,58,0.00,,SCT120,0.00,0.00,VWS V14.01,2013-02-13 04:28:00,
2013-02-12 21:30:00,37.2,24.2,29.90,WSW,257,5.0,7.0,59,0.00,,OVC090,0.00,0.00,VWS V14.01,2013-02-13 04:30:00,
2013-02-12 21:33:00,37.3,23.9,29.93,WSW,246,6.0,7.0,58,0.00,,OVC085,0.00,0.00,VWS V14.01,2013-02-13 04:33:00,
2013-02-12 21:38:00,37.5,24.1,29.93,WSW,258,5.0,7.0,58,0.00,,OVC085,0.00,0.00,VWS V14.01,2013-02-13 04:38:00,
2013-02-12 21:43:00,37.6,24.2,29.92,WSW,244,4.0,7.0,58,0.00,,OVC085,0.00,0.00,VWS V14.01,2013-02-13 04:43:00,
2013-02-12 21:48:00,37.6,24.2,29.92,WSW,247,4.0,7.0,58,0.00,,OVC085,0.00,0.00,VWS V14.01,2013-02-13 04:48:00,
2013-02-12 21:53:00,37.5,24.1,29.92,West,273,2.0,8.0,58,0.00,,OVC085,0.00,0.00,VWS V14.01,2013-02-13 04:53:00,
2013-02-12 21:58:00,37.4,24.0,29.92,West,273,5.0,9.0,58,0.00,,OVC085,0.00,0.00,VWS V14.01,2013-02-13 04:58:00,
2013-02-12 22:00:00,37.4,24.0,29.92,WSW,257,2.0,9.0,58,0.00,,OVC085,0.00,0.00,VWS V14.01,2013-02-13 05:00:00,
2013-02-12 22:05:00,37.2,24.2,29.92,WNW,300,1.0,6.0,59,0.00,,OVC070,0.00,0.00,VWS V14.01,2013-02-13 05:05:00,
2013-02-12 22:10:00,37.2,23.8,29.91,West,268,4.0,7.0,58,0.00,,OVC070,0.00,0.00,VWS V14.01,2013-02-13 05:10:00,
2013-02-12 22:15:00,37.4,24.0,29.90,WSW,254,4.0,7.0,58,0.00,,OVC070,0.00,0.00,VWS V14.01,2013-02-13 05:15:00,
2013-02-12 22:20:00,37.4,24.0,29.90,West,261,5.0,7.0,58,0.00,,OVC070,0.00,0.00,VWS V14.01,2013-02-13 05:20:00,
2013-02-12 22:25:00,37.3,23.9,29.90,WSW,247,4.0,7.0,58,0.00,,OVC070,0.00,0.00,VWS V14.01,2013-02-13 05:25:00,
2013-02-12 22:30:00,37.2,23.8,29.90,West,272,4.0,7.0,58,0.00,,OVC070,0.00,0.00,VWS V14.01,2013-02-13 05:30:00,
2013-02-12 22:35:00,37.2,23.8,29.90,WSW,242,5.0,7.0,58,0.00,,OVC070,0.00,0.00,VWS V14.01,2013-02-13 05:35:00,
2013-02-12 22:40:00,37.4,24.0,29.90,West,260,3.0,7.0,58,0.00,,OVC070,0.00,0.00,VWS V14.01,2013-02-13 05:40:00,
2013-02-12 22:45:00,37.6,24.2,29.89,SW,236,3.0,7.0,58,0.00,,OVC070,0.00,0.00,VWS V14.01,2013-02-13 05:45:00,
2013-02-12 22:50:00,37.7,24.3,29.89,SW,236,3.0,7.0,58,0.00,,OVC070,0.00,0.00,VWS V14.01,2013-02-13 05:50:00,
2013-02-12 22:55:00,37.6,24.2,29.89,SW,235,2.0,7.0,58,0.00,,OVC070,0.00,0.00,VWS V14.01,2013-02-13 05:55:00,
2013-02-12 23:00:00,37.6,23.8,29.89,SW,229,3.0,7.0,57,0.00,,OVC070,0.00,0.00,VWS V14.01,2013-02-13 06:00:00,
2013-02-12 23:05:00,37.6,23.8,29.88,SW,230,4.0,6.0,57,0.00,,OVC150,0.00,0.00,VWS V14.01,2013-02-13 06:05:00,
2013-02-12 23:10:00,37.7,23.9,29.87,SW,235,4.0,7.0,57,0.00,,OVC150,0.00,0.00,VWS V14.01,2013-02-13 06:10:00,
2013-02-12 23:15:00,37.6,23.8,29.88,SW,227,3.0,7.0,57,0.00,,OVC150,0.00,0.00,VWS V14.01,2013-02-13 06:15:00,
2013-02-12 23:20:00,37.3,23.9,29.88,SW,228,3.0,7.0,58,0.00,,OVC150,0.00,0.00,VWS V14.01,2013-02-13 06:20:00,
2013-02-12 23:25:00,37.0,23.6,29.89,SW,227,4.0,7.0,58,0.00,,OVC150,0.00,0.00,VWS V14.01,2013-02-13 06:25:00,
2013-02-12 23:30:00,36.9,23.5,29.89,SW,222,5.0,7.0,58,0.00,,OVC150,0.00,0.00,VWS V14.01,2013-02-13 06:30:00,
2013-02-12 23:35:00,36.7,23.3,29.88,SW,225,5.0,5.0,58,0.00,,OVC150,0.00,0.00,VWS V14.01,2013-02-13 06:35:00,
2013-02-12 23:40:00,36.3,23.4,29.89,SW,232,4.0,5.0,59,0.00,,OVC150,0.00,0.00,VWS V14.01,2013-02-13 06:40:00,
2013-02-12 23:45:00,35.8,22.9,29.89,SW,229,2.0,5.0,59,0.00,,OVC150,0.00,0.00,VWS V14.01,2013-02-13 06:45:00,
2013-02-12 23:50:00,35.4,22.9,29.89,WSW,242,3.0,5.0,60,0.00,,OVC150,0.00,0.00,VWS V14.01,2013-02-13 06:50:00,
2013-02-12 23:55:00,35.1,22.6,29.89,WSW,245,4.0,6.0,60,0.00,,OVC150,0.00,0.00,VWS V14.01,2013-02-13 06:55:00,